createdAt,value
2022-12-25T00:00:20.718Z,73.10
2022-12-25T00:02:49.531Z,77.18
2022-12-25T00:05:17.945Z,75.65
2022-12-25T00:07:46.127Z,79.60
2022-12-25T00:10:14.219Z,65.22
2022-12-25T00:12:42.456Z,69.15
2022-12-25T00:15:10.841Z,63.72
2022-12-25T00:17:38.795Z,68.68
2022-12-25T00:20:07.471Z,74.18
2022-12-25T00:22:35.770Z,64.32
2022-12-25T00:25:04.275Z,65.07
2022-12-25T00:27:34.213Z,43.13
2022-12-25T00:30:02.397Z,38.92
2022-12-25T00:32:30.298Z,26.58
2022-12-25T00:34:58.502Z,29.10
2022-12-25T00:37:26.318Z,30.55
2022-12-25T00:39:54.276Z,31.63
2022-12-25T00:42:23.995Z,35.47
2022-12-25T00:44:52.157Z,37.95
2022-12-25T00:47:20.050Z,34.72
2022-12-25T00:49:48.285Z,15.82
2022-12-25T00:52:16.275Z,31.35
2022-12-25T00:54:44.139Z,23.67
2022-12-25T00:57:12.198Z,24.48
2022-12-25T00:59:40.286Z,27.60
2022-12-25T01:02:23.761Z,19.05
2022-12-25T01:04:57.252Z,20.83
2022-12-25T01:07:26.902Z,24.23
2022-12-25T01:10:13.411Z,27.27
2022-12-25T01:12:43.075Z,22.38
2022-12-25T01:15:12.215Z,21.13
2022-12-25T01:17:40.417Z,26.67
2022-12-25T01:20:09.547Z,28.17
2022-12-25T01:22:37.592Z,31.13
2022-12-25T01:25:06.742Z,28.13
2022-12-25T01:27:35.456Z,30.30
2022-12-25T01:30:04.269Z,29.45
2022-12-25T01:32:32.297Z,38.83
2022-12-25T01:35:00.210Z,44.25
2022-12-25T01:37:28.256Z,47.05
2022-12-25T01:39:56.064Z,31.52
2022-12-25T01:42:24.304Z,30.90
2022-12-25T01:44:52.207Z,38.85
2022-12-25T01:47:20.125Z,16.60
2022-12-25T01:49:50.958Z,11.80
2022-12-25T01:52:25.544Z,20.95
2022-12-25T01:54:59.694Z,21.45
2022-12-25T01:57:32.056Z,14.20
2022-12-25T02:00:01.800Z,35.13
2022-12-25T02:02:33.467Z,40.92
2022-12-25T02:05:08.371Z,19.70
2022-12-25T02:07:38.650Z,24.88
2022-12-25T02:10:07.938Z,31.38
2022-12-25T02:12:36.830Z,37.45
2022-12-25T02:15:11.978Z,30.55
2022-12-25T02:18:07.917Z,20.63
2022-12-25T02:21:10.987Z,9.80
2022-12-25T02:24:01.613Z,14.52
2022-12-25T02:26:55.755Z,15.98
2022-12-25T02:29:33.631Z,10.80
2022-12-25T02:32:35.222Z,9.57
2022-12-25T02:35:13.012Z,10.43
2022-12-25T02:38:08.625Z,7.18
2022-12-25T02:40:51.552Z,10.75
2022-12-25T02:43:50.393Z,9.52
2022-12-25T02:46:40.664Z,9.75
2022-12-25T02:49:47.065Z,12.50
2022-12-25T02:52:38.237Z,32.53
2022-12-25T02:55:38.763Z,36.55
2022-12-25T03:00:37.041Z,40.33
2022-12-25T03:03:27.835Z,28.20
2022-12-25T03:06:18.786Z,31.27
2022-12-25T03:08:50.492Z,22.02
2022-12-25T03:11:34.072Z,17.75
2022-12-25T03:14:24.756Z,14.98
2022-12-25T03:16:56.710Z,38.38
2022-12-25T03:19:50.478Z,29.33
2022-12-25T03:25:34.828Z,26.92
2022-12-25T03:28:04.083Z,26.95
2022-12-25T03:34:17.327Z,17.27
2022-12-25T03:37:18.361Z,19.83
2022-12-25T03:40:27.891Z,21.75
2022-12-25T03:44:03.188Z,32.70
2022-12-25T03:46:54.770Z,23.50
2022-12-25T03:49:49.335Z,28.45
2022-12-25T03:52:39.604Z,22.58
2022-12-25T03:55:30.206Z,21.33
2022-12-25T03:58:16.822Z,16.70
2022-12-25T04:01:03.580Z,17.52
2022-12-25T04:03:51.088Z,17.05
2022-12-25T04:06:37.809Z,28.92
2022-12-25T04:09:31.727Z,55.38
2022-12-25T04:12:18.032Z,38.05
2022-12-25T04:15:04.241Z,44.03
2022-12-25T04:17:50.867Z,29.75
2022-12-25T04:20:37.394Z,41.28
2022-12-25T04:23:24.105Z,41.67
2022-12-25T04:26:10.758Z,40.88
2022-12-25T04:28:57.368Z,53.92
2022-12-25T04:31:43.701Z,37.08
2022-12-25T04:34:30.446Z,29.05
2022-12-25T04:36:58.396Z,25.15
2022-12-25T04:39:26.256Z,26.63
2022-12-25T04:41:54.206Z,28.65
2022-12-25T04:44:22.113Z,23.42
2022-12-25T04:46:50.339Z,40.95
2022-12-25T04:49:18.831Z,43.10
2022-12-25T04:51:46.659Z,52.22
2022-12-25T04:54:14.734Z,50.58
2022-12-25T04:56:45.810Z,44.78
2022-12-25T04:59:14.268Z,51.40
2022-12-25T05:01:42.183Z,45.00
2022-12-25T05:04:10.191Z,37.35
2022-12-25T05:06:38.168Z,39.17
2022-12-25T05:09:06.851Z,37.20
2022-12-25T05:11:35.073Z,35.22
2022-12-25T05:14:02.989Z,26.90
2022-12-25T05:16:31.111Z,33.13
2022-12-25T05:18:59.187Z,31.25
2022-12-25T05:21:27.236Z,29.33
2022-12-25T05:23:55.097Z,33.63
2022-12-25T05:26:25.914Z,35.10
2022-12-25T05:28:55.153Z,37.42
2022-12-25T05:31:23.559Z,46.78
2022-12-25T05:33:52.788Z,42.03
2022-12-25T05:36:20.788Z,51.55
2022-12-25T05:38:48.913Z,49.50
2022-12-25T05:41:17.042Z,55.55
2022-12-25T05:43:45.213Z,51.47
2022-12-25T05:46:14.220Z,42.65
2022-12-25T05:48:42.181Z,50.70
2022-12-25T05:51:12.364Z,49.25
2022-12-25T05:53:41.975Z,44.72
2022-12-25T05:56:10.511Z,55.40
2022-12-25T05:58:39.976Z,77.95
2022-12-25T06:01:14.026Z,71.63
2022-12-25T06:03:42.187Z,81.18
2022-12-25T06:06:11.170Z,60.30
2022-12-25T06:08:39.138Z,54.13
2022-12-25T06:11:08.097Z,60.67
2022-12-25T06:13:36.822Z,58.05
2022-12-25T06:16:10.258Z,54.38
2022-12-25T06:18:44.368Z,55.22
2022-12-25T06:21:14.720Z,60.20
2022-12-25T06:23:42.999Z,55.88
2022-12-25T06:26:14.679Z,65.97
2022-12-25T06:28:42.657Z,63.42
2022-12-25T06:31:14.739Z,99.50
2022-12-25T06:33:43.719Z,85.05
2022-12-25T06:36:17.532Z,98.13
2022-12-25T06:38:45.560Z,112.68
2022-12-25T06:41:16.616Z,105.85
2022-12-25T06:43:52.094Z,113.30
2022-12-25T06:46:21.051Z,74.68
2022-12-25T06:48:50.160Z,72.75
2022-12-25T06:51:26.631Z,72.25
2022-12-25T06:53:55.842Z,59.83
2022-12-25T06:56:27.147Z,63.00
2022-12-25T06:58:57.348Z,55.45
2022-12-25T07:01:34.884Z,52.45
2022-12-25T07:04:07.887Z,49.53
2022-12-25T07:06:36.200Z,54.65
2022-12-25T07:09:04.326Z,60.67
2022-12-25T07:11:32.329Z,66.82
2022-12-25T07:14:00.273Z,72.20
2022-12-25T07:16:28.287Z,68.75
2022-12-25T07:18:56.280Z,69.35
2022-12-25T07:21:24.519Z,73.10
2022-12-25T07:23:52.754Z,77.38
2022-12-25T07:26:21.211Z,72.97
2022-12-25T07:28:49.091Z,71.00
2022-12-25T07:31:18.566Z,77.60
2022-12-25T07:33:47.108Z,71.43
2022-12-25T07:36:15.826Z,82.97
2022-12-25T07:38:45.046Z,76.53
2022-12-25T07:41:13.490Z,30.73
2022-12-25T07:43:41.715Z,25.90
2022-12-25T07:46:10.174Z,13.23
2022-12-25T07:48:38.250Z,8.15
2022-12-25T07:51:10.530Z,8.20
2022-12-25T07:53:39.667Z,11.38
2022-12-25T07:58:43.765Z,16.05
2022-12-25T08:01:18.320Z,7.05
2022-12-25T08:03:55.358Z,6.53
2022-12-25T08:06:30.120Z,32.83
2022-12-25T08:09:07.487Z,6.57
2022-12-25T08:11:37.588Z,14.48
2022-12-25T08:14:08.021Z,12.30
2022-12-25T08:16:41.875Z,12.10
2022-12-25T08:19:10.630Z,7.13
2022-12-25T08:21:39.188Z,29.10
2022-12-25T08:24:07.886Z,12.80
2022-12-25T08:26:36.714Z,7.63
2022-12-25T08:39:05.741Z,8.93
2022-12-25T08:41:36.952Z,6.32
2022-12-25T08:44:06.678Z,8.90
2022-12-25T08:46:37.154Z,13.90
2022-12-25T08:49:06.276Z,5.22
2022-12-25T08:51:34.801Z,9.90
2022-12-25T08:54:05.701Z,5.97
2022-12-25T08:56:34.143Z,8.38
2022-12-25T08:59:03.697Z,11.23
2022-12-25T09:01:32.435Z,6.50
2022-12-25T09:04:00.869Z,7.90
2022-12-25T09:06:29.540Z,4.88
2022-12-25T09:08:57.776Z,6.13
2022-12-25T09:11:26.299Z,4.63
2022-12-25T09:13:54.920Z,5.32
2022-12-25T09:16:23.902Z,7.70
2022-12-25T09:18:52.711Z,6.40
2022-12-25T09:21:21.183Z,3.13
2022-12-25T09:23:49.839Z,7.38
2022-12-25T09:26:19.538Z,7.15
2022-12-25T09:28:51.933Z,6.13
2022-12-25T09:31:22.687Z,8.10
2022-12-25T09:33:52.207Z,14.45
2022-12-25T09:36:23.789Z,6.68
2022-12-25T09:38:53.109Z,5.50
2022-12-25T09:41:30.608Z,7.32
2022-12-25T09:44:13.894Z,10.00
2022-12-25T09:46:53.811Z,11.55
2022-12-25T09:49:39.477Z,5.05
2022-12-25T09:52:31.297Z,5.88
2022-12-25T09:55:17.917Z,6.45
2022-12-25T09:57:52.964Z,5.72
2022-12-25T10:00:23.831Z,5.55
2022-12-25T10:03:04.208Z,5.40
2022-12-25T10:06:10.110Z,5.63
2022-12-25T10:08:48.110Z,7.35
2022-12-25T10:11:31.333Z,5.97
2022-12-25T10:14:25.139Z,4.10
2022-12-25T10:17:17.274Z,4.22
2022-12-25T10:19:56.077Z,6.57
2022-12-25T10:22:29.381Z,4.15
2022-12-25T10:25:00.475Z,6.40
2022-12-25T10:27:41.308Z,5.80
2022-12-25T10:32:46.939Z,4.70
2022-12-25T10:35:18.914Z,7.20
2022-12-25T10:37:56.030Z,8.73
2022-12-25T10:40:24.409Z,10.63
2022-12-25T10:43:01.825Z,5.95
2022-12-25T10:45:30.297Z,8.63
2022-12-25T10:48:07.894Z,9.35
2022-12-25T10:50:43.738Z,4.60
2022-12-25T10:53:23.437Z,6.82
2022-12-25T10:56:06.812Z,5.32
2022-12-25T10:58:35.247Z,6.68
2022-12-25T11:01:06.845Z,7.28
2022-12-25T11:03:39.375Z,8.15
2022-12-25T11:06:22.455Z,7.00
2022-12-25T11:09:01.715Z,6.82
2022-12-25T11:11:31.352Z,4.65
2022-12-25T11:14:02.624Z,6.55
2022-12-25T11:16:38.629Z,8.48
2022-12-25T11:19:29.463Z,6.03
2022-12-25T11:22:00.657Z,7.05
2022-12-25T11:24:32.742Z,3.95
2022-12-25T11:27:04.910Z,4.95
2022-12-25T11:29:49.390Z,7.90
2022-12-25T11:32:23.886Z,9.27
2022-12-25T11:34:53.587Z,15.10
2022-12-25T11:37:33.852Z,8.10
2022-12-25T11:40:02.759Z,12.82
2022-12-25T11:42:47.936Z,5.07
2022-12-25T11:45:21.201Z,5.63
2022-12-25T11:48:09.496Z,6.28
2022-12-25T11:50:53.706Z,5.97
2022-12-25T11:53:54.646Z,5.43
2022-12-25T11:56:26.536Z,5.25
2022-12-25T11:59:01.114Z,12.85
2022-12-25T12:04:20.190Z,6.95
2022-12-25T12:07:15.225Z,12.25
2022-12-25T12:10:05.393Z,6.70
2022-12-25T12:12:46.807Z,9.85
2022-12-25T12:15:36.264Z,12.10
2022-12-25T12:18:10.874Z,4.57
2022-12-25T12:20:39.383Z,4.25
2022-12-25T12:23:16.116Z,7.47
2022-12-25T12:25:46.169Z,4.10
2022-12-25T12:28:23.032Z,4.38
2022-12-25T12:31:05.186Z,6.63
2022-12-25T12:33:51.133Z,5.35
2022-12-25T12:36:34.462Z,4.03
2022-12-25T12:39:06.345Z,4.22
2022-12-25T12:41:45.066Z,3.67
2022-12-25T12:44:15.046Z,5.88
2022-12-25T12:46:57.938Z,4.13
2022-12-25T12:49:33.188Z,7.43
2022-12-25T12:52:26.650Z,4.80
2022-12-25T12:55:05.237Z,5.32
2022-12-25T12:57:41.831Z,16.00
2022-12-25T13:00:52.881Z,4.18
2022-12-25T13:04:05.505Z,7.22
2022-12-25T13:06:51.618Z,5.13
2022-12-25T13:09:44.601Z,10.60
2022-12-25T13:12:15.468Z,5.97
2022-12-25T13:14:46.586Z,9.98
2022-12-25T13:17:26.454Z,11.55
2022-12-25T13:20:00.061Z,4.88
2022-12-25T13:22:34.920Z,6.93
2022-12-25T13:25:09.303Z,8.70
2022-12-25T13:27:37.752Z,5.95
2022-12-25T13:30:20.077Z,5.50
2022-12-25T13:32:49.691Z,12.85
2022-12-25T13:35:21.586Z,6.10
2022-12-25T13:37:50.901Z,7.65
2022-12-25T13:40:28.132Z,9.32
2022-12-25T13:43:00.840Z,8.40
2022-12-25T13:45:31.440Z,7.68
2022-12-25T13:48:16.330Z,10.13
2022-12-25T13:50:48.825Z,7.97
2022-12-25T13:53:18.530Z,8.40
2022-12-25T13:55:52.984Z,7.03
2022-12-25T13:58:31.112Z,8.32
2022-12-25T14:01:01.977Z,7.93
2022-12-25T14:03:46.004Z,9.25
2022-12-25T14:06:21.278Z,7.80
2022-12-25T14:08:50.315Z,10.65
2022-12-25T14:11:22.604Z,10.65
2022-12-25T14:13:57.142Z,8.65
2022-12-25T14:16:27.236Z,12.20
2022-12-25T14:18:59.165Z,37.60
2022-12-25T14:21:33.747Z,49.85
2022-12-25T14:24:02.552Z,51.25
2022-12-25T14:26:34.696Z,47.58
2022-12-25T14:29:11.185Z,171.80
2022-12-25T14:31:47.292Z,99.32
2022-12-25T14:34:23.141Z,66.32
2022-12-25T14:36:53.303Z,78.15
2022-12-25T14:39:40.214Z,73.90
2022-12-25T14:42:24.263Z,65.80
2022-12-25T14:45:26.508Z,56.20
2022-12-25T14:48:21.175Z,58.97
2022-12-25T14:51:32.979Z,49.35
2022-12-25T14:54:04.443Z,45.78
2022-12-25T14:56:39.608Z,51.17
2022-12-25T14:59:21.468Z,109.90
2022-12-25T15:01:55.228Z,97.13
2022-12-25T15:04:24.552Z,64.85
2022-12-25T15:07:01.956Z,126.78
2022-12-25T15:09:31.067Z,94.93
2022-12-25T15:11:59.703Z,143.98
2022-12-25T15:14:28.298Z,56.20
2022-12-25T15:16:59.383Z,40.47
2022-12-25T15:19:36.936Z,43.67
2022-12-25T15:22:06.985Z,46.65
2022-12-25T15:24:35.568Z,36.03
2022-12-25T15:27:05.747Z,41.83
2022-12-25T15:32:24.641Z,36.63
2022-12-25T15:34:54.321Z,31.92
2022-12-25T15:37:23.112Z,31.77
2022-12-25T15:39:51.667Z,31.80
2022-12-25T15:42:25.269Z,66.35
2022-12-25T15:44:54.460Z,89.40
2022-12-25T15:47:23.349Z,48.42
2022-12-25T15:49:52.004Z,45.40
2022-12-25T15:52:20.573Z,28.17
2022-12-25T15:54:49.176Z,71.10
2022-12-25T15:57:21.593Z,83.10
2022-12-25T15:59:50.134Z,56.95
2022-12-25T16:02:21.157Z,76.72
2022-12-25T16:04:51.384Z,126.80
2022-12-25T16:07:23.881Z,39.17
2022-12-25T16:09:53.197Z,51.08
2022-12-25T16:12:21.892Z,28.27
2022-12-25T16:14:50.455Z,52.10
2022-12-25T16:17:19.112Z,58.75
2022-12-25T16:19:47.524Z,42.20
2022-12-25T16:22:25.967Z,51.53
2022-12-25T16:24:55.146Z,43.90
2022-12-25T16:29:52.583Z,143.13
2022-12-25T16:34:49.695Z,76.80
2022-12-25T16:37:18.438Z,62.92
2022-12-25T16:39:46.991Z,107.75
2022-12-25T16:42:15.748Z,75.93
2022-12-25T16:44:44.374Z,45.75
2022-12-25T16:47:12.863Z,50.22
2022-12-25T16:49:41.320Z,49.95
2022-12-25T16:52:09.900Z,67.70
2022-12-25T16:54:38.280Z,67.57
2022-12-25T16:57:06.589Z,86.35
2022-12-25T16:59:36.307Z,104.15
2022-12-25T17:02:04.966Z,76.72
2022-12-25T17:04:33.697Z,114.55
2022-12-25T17:07:02.211Z,137.20
2022-12-25T17:09:31.552Z,88.95
2022-12-25T17:12:00.102Z,93.03
2022-12-25T17:14:28.722Z,147.45
2022-12-25T17:16:57.110Z,70.70
2022-12-25T17:19:25.903Z,87.35
2022-12-25T17:22:00.015Z,98.18
2022-12-25T17:24:30.288Z,93.15
2022-12-25T17:26:58.851Z,68.85
2022-12-25T17:29:27.430Z,40.17
2022-12-25T17:31:56.208Z,26.40
2022-12-25T17:34:24.707Z,37.50
2022-12-25T17:36:54.920Z,46.65
2022-12-25T17:39:23.387Z,47.83
2022-12-25T17:41:55.794Z,48.33
2022-12-25T17:44:24.429Z,39.20
2022-12-25T17:46:52.966Z,132.38
2022-12-25T17:49:22.762Z,188.43
2022-12-25T17:51:51.317Z,137.00
2022-12-25T17:54:19.928Z,52.67
2022-12-25T17:56:49.657Z,151.07
2022-12-25T17:59:23.568Z,74.43
2022-12-25T18:01:52.171Z,35.45
2022-12-25T18:04:21.188Z,16.10
2022-12-25T18:06:49.558Z,15.77
2022-12-25T18:09:19.168Z,64.53
2022-12-25T18:11:48.728Z,79.18
2022-12-25T18:14:18.131Z,53.25
2022-12-25T18:16:47.182Z,78.35
2022-12-25T18:19:18.750Z,156.52
2022-12-25T18:21:47.321Z,173.77
2022-12-25T18:24:15.938Z,144.75
2022-12-25T18:26:44.589Z,156.25
2022-12-25T18:29:12.883Z,130.82
2022-12-25T18:31:44.074Z,116.07
2022-12-25T18:34:12.627Z,116.28
2022-12-25T18:36:41.325Z,99.22
2022-12-25T18:39:11.750Z,116.07
2022-12-25T18:42:00.246Z,75.93
2022-12-25T18:44:30.517Z,106.18
2022-12-25T18:46:59.088Z,48.00
2022-12-25T18:49:27.340Z,34.45
2022-12-25T18:52:49.766Z,53.35
2022-12-25T18:54:45.581Z,67.85
2022-12-25T18:57:14.105Z,160.23
2022-12-25T18:59:42.757Z,166.45
2022-12-25T19:02:12.658Z,160.63
2022-12-25T19:04:43.957Z,195.80
2022-12-25T19:07:13.019Z,188.15
2022-12-25T19:09:41.491Z,139.48
2022-12-25T19:12:10.183Z,115.20
2022-12-25T19:14:48.073Z,96.50
2022-12-25T19:17:18.279Z,104.55
2022-12-25T19:19:47.033Z,102.50
2022-12-25T19:22:15.432Z,111.93
2022-12-25T19:24:44.261Z,114.72
2022-12-25T19:27:12.843Z,191.93
2022-12-25T19:29:41.257Z,63.25
2022-12-25T19:32:09.767Z,151.98
2022-12-25T19:34:38.723Z,180.18
2022-12-25T19:37:07.667Z,263.45
2022-12-25T19:39:35.962Z,263.55
2022-12-25T19:42:04.597Z,237.45
2022-12-25T19:44:33.146Z,177.60
2022-12-25T19:47:01.717Z,166.98
2022-12-25T19:49:30.175Z,106.15
2022-12-25T19:51:58.715Z,110.65
2022-12-25T19:54:29.803Z,101.72
2022-12-25T19:56:58.352Z,92.68
2022-12-25T19:59:26.737Z,110.25
2022-12-25T20:01:55.927Z,147.60
2022-12-25T20:06:52.740Z,94.18
2022-12-25T20:09:21.907Z,138.07
2022-12-25T20:11:50.484Z,121.40
2022-12-25T20:14:19.916Z,129.50
2022-12-25T20:16:48.491Z,138.20
2022-12-25T20:19:17.028Z,105.78
2022-12-25T20:21:46.220Z,105.63
2022-12-25T20:24:14.752Z,115.03
2022-12-25T20:26:47.499Z,114.85
2022-12-25T20:29:16.713Z,108.65
2022-12-25T20:31:45.689Z,65.10
2022-12-25T20:34:14.120Z,55.10
2022-12-25T20:36:43.555Z,73.95
2022-12-25T20:39:12.447Z,66.10
2022-12-25T20:41:41.166Z,60.83
2022-12-25T20:44:10.603Z,120.20
2022-12-25T20:46:39.475Z,84.20
2022-12-25T20:49:08.113Z,70.53
2022-12-25T20:51:39.388Z,71.13
2022-12-25T20:54:10.137Z,79.03
2022-12-25T20:56:39.038Z,101.25
2022-12-25T20:59:07.432Z,65.72
2022-12-25T21:01:36.093Z,21.60
2022-12-25T21:04:04.773Z,65.05
2022-12-25T21:06:33.373Z,86.47
2022-12-25T21:09:01.953Z,77.70
2022-12-25T21:11:31.769Z,104.78
2022-12-25T21:14:00.392Z,69.63
2022-12-25T21:16:29.127Z,59.17
2022-12-25T21:18:59.169Z,61.50
2022-12-25T21:21:28.102Z,56.40
2022-12-25T21:23:57.690Z,58.90
2022-12-25T21:26:28.837Z,58.20
2022-12-25T21:29:00.630Z,62.88
2022-12-25T21:31:30.546Z,98.30
2022-12-25T21:33:59.729Z,136.32
2022-12-25T21:36:34.332Z,111.32
2022-12-25T21:39:06.187Z,91.07
2022-12-25T21:41:40.064Z,91.70
2022-12-25T21:44:09.419Z,99.65
2022-12-25T21:46:37.725Z,88.65
2022-12-25T21:49:06.551Z,91.97
2022-12-25T21:51:53.973Z,80.70
2022-12-25T21:54:23.507Z,79.22
2022-12-25T21:56:51.516Z,79.93
2022-12-25T21:59:21.625Z,74.97
2022-12-25T22:01:51.474Z,65.93
2022-12-25T22:04:22.601Z,70.82
2022-12-25T22:07:09.773Z,69.10
2022-12-25T22:09:37.917Z,53.50
2022-12-25T22:12:27.411Z,47.22
2022-12-25T22:15:03.159Z,50.05
2022-12-25T22:17:58.483Z,39.00
2022-12-25T22:20:34.948Z,17.33
2022-12-25T22:23:04.167Z,19.60
2022-12-25T22:25:32.275Z,39.10
2022-12-25T22:28:00.263Z,40.42
2022-12-25T22:30:29.499Z,33.85
2022-12-25T22:32:57.915Z,40.83
2022-12-25T22:35:26.148Z,34.45
2022-12-25T22:37:54.529Z,38.60
2022-12-25T22:40:22.604Z,40.40
2022-12-25T22:42:54.163Z,39.65
2022-12-25T22:45:22.728Z,47.17
2022-12-25T22:47:50.775Z,37.60
2022-12-25T22:50:19.113Z,46.95
2022-12-25T22:52:47.374Z,65.78
2022-12-25T22:55:19.382Z,77.75
2022-12-25T22:57:47.613Z,72.55
2022-12-25T23:00:15.634Z,83.50
2022-12-25T23:02:43.976Z,72.50
2022-12-25T23:05:12.059Z,83.05
2022-12-25T23:07:40.587Z,96.57
2022-12-25T23:10:09.289Z,102.68
2022-12-25T23:12:55.682Z,64.32
2022-12-25T23:15:23.865Z,61.25
2022-12-25T23:18:10.194Z,65.78
2022-12-25T23:20:56.836Z,43.08
2022-12-25T23:23:43.360Z,35.30
2022-12-25T23:26:11.998Z,40.38
2022-12-25T23:29:00.698Z,40.72
2022-12-25T23:31:36.780Z,50.60
2022-12-25T23:34:06.443Z,59.70
2022-12-25T23:36:35.116Z,53.40
2022-12-25T23:39:09.037Z,56.67
2022-12-25T23:41:39.747Z,49.10
2022-12-25T23:44:08.513Z,49.90
2022-12-25T23:46:37.360Z,41.30
2022-12-25T23:49:06.391Z,69.03
2022-12-25T23:51:40.066Z,43.78
2022-12-25T23:54:08.233Z,49.05
2022-12-25T23:56:37.022Z,58.17
2022-12-25T23:59:06.369Z,52.83
